sensor_id;sensor_type;location;lat;lon;timestamp;P1;durP1;ratioP1;P2;durP2;ratioP2
64791;SDS011;51226;47.504;19.074;2023-02-02T00:01:33;3.30;;;1.90;;
64791;SDS011;51226;47.504;19.074;2023-02-02T00:04:37;2.05;;;1.80;;
64791;SDS011;51226;47.504;19.074;2023-02-02T00:07:39;4.07;;;1.77;;
64791;SDS011;51226;47.504;19.074;2023-02-02T00:10:43;4.95;;;1.67;;
64791;SDS011;51226;47.504;19.074;2023-02-02T00:16:50;2.53;;;1.80;;
64791;SDS011;51226;47.504;19.074;2023-02-02T00:19:54;2.75;;;1.52;;
64791;SDS011;51226;47.504;19.074;2023-02-02T00:22:57;1.52;;;1.40;;
64791;SDS011;51226;47.504;19.074;2023-02-02T00:25:59;2.97;;;1.47;;
64791;SDS011;51226;47.504;19.074;2023-02-02T00:29:03;2.22;;;1.70;;
64791;SDS011;51226;47.504;19.074;2023-02-02T00:32:06;3.03;;;1.70;;
64791;SDS011;51226;47.504;19.074;2023-02-02T00:35:09;2.62;;;1.90;;
64791;SDS011;51226;47.504;19.074;2023-02-02T00:38:12;4.18;;;2.20;;
64791;SDS011;51226;47.504;19.074;2023-02-02T00:41:16;3.42;;;1.87;;
64791;SDS011;51226;47.504;19.074;2023-02-02T00:44:18;1.97;;;1.67;;
64791;SDS011;51226;47.504;19.074;2023-02-02T00:47:49;3.30;;;1.67;;
64791;SDS011;51226;47.504;19.074;2023-02-02T00:50:52;3.20;;;1.62;;
64791;SDS011;51226;47.504;19.074;2023-02-02T00:53:55;2.83;;;1.90;;
64791;SDS011;51226;47.504;19.074;2023-02-02T00:56:58;3.83;;;2.10;;
64791;SDS011;51226;47.504;19.074;2023-02-02T01:00:01;4.85;;;1.77;;
64791;SDS011;51226;47.504;19.074;2023-02-02T01:03:05;3.03;;;2.03;;
64791;SDS011;51226;47.504;19.074;2023-02-02T01:06:08;3.35;;;1.60;;
64791;SDS011;51226;47.504;19.074;2023-02-02T01:09:11;3.20;;;1.67;;
64791;SDS011;51226;47.504;19.074;2023-02-02T01:12:15;2.10;;;1.48;;
64791;SDS011;51226;47.504;19.074;2023-02-02T01:15:17;2.47;;;1.50;;
64791;SDS011;51226;47.504;19.074;2023-02-02T01:18:21;4.20;;;2.33;;
64791;SDS011;51226;47.504;19.074;2023-02-02T01:24:27;3.05;;;1.98;;
64791;SDS011;51226;47.504;19.074;2023-02-02T01:27:30;2.10;;;1.63;;
64791;SDS011;51226;47.504;19.074;2023-02-02T01:30:33;2.47;;;1.62;;
64791;SDS011;51226;47.504;19.074;2023-02-02T01:33:36;2.43;;;1.50;;
64791;SDS011;51226;47.504;19.074;2023-02-02T01:36:40;1.85;;;1.50;;
64791;SDS011;51226;47.504;19.074;2023-02-02T01:39:42;1.60;;;1.40;;
64791;SDS011;51226;47.504;19.074;2023-02-02T01:42:45;2.28;;;1.58;;
64791;SDS011;51226;47.504;19.074;2023-02-02T01:45:49;1.87;;;1.10;;
64791;SDS011;51226;47.504;19.074;2023-02-02T01:52:16;4.62;;;1.40;;
64791;SDS011;51226;47.504;19.074;2023-02-02T01:55:23;3.30;;;1.70;;
64791;SDS011;51226;47.504;19.074;2023-02-02T01:58:29;1.25;;;1.15;;
64791;SDS011;51226;47.504;19.074;2023-02-02T02:01:36;2.80;;;1.00;;
64791;SDS011;51226;47.504;19.074;2023-02-02T02:04:39;2.87;;;1.00;;
64791;SDS011;51226;47.504;19.074;2023-02-02T02:07:45;2.00;;;1.00;;
64791;SDS011;51226;47.504;19.074;2023-02-02T02:10:50;0.88;;;0.60;;
64791;SDS011;51226;47.504;19.074;2023-02-02T02:13:53;2.65;;;0.60;;
64791;SDS011;51226;47.504;19.074;2023-02-02T02:24:49;1.80;;;0.80;;
64791;SDS011;51226;47.504;19.074;2023-02-02T02:28:19;1.10;;;0.70;;
64791;SDS011;51226;47.504;19.074;2023-02-02T02:38:38;0.80;;;0.80;;
64791;SDS011;51226;47.504;19.074;2023-02-02T02:41:48;0.93;;;0.77;;
64791;SDS011;51226;47.504;19.074;2023-02-02T02:44:53;0.70;;;0.70;;
64791;SDS011;51226;47.504;19.074;2023-02-02T02:47:58;0.70;;;0.70;;
64791;SDS011;51226;47.504;19.074;2023-02-02T02:51:08;1.10;;;0.80;;
64791;SDS011;51226;47.504;19.074;2023-02-02T02:54:39;0.70;;;0.70;;
64791;SDS011;51226;47.504;19.074;2023-02-02T02:58:03;2.12;;;0.90;;
64791;SDS011;51226;47.504;19.074;2023-02-02T03:05:06;1.15;;;0.98;;
64791;SDS011;51226;47.504;19.074;2023-02-02T03:11:39;2.22;;;1.30;;
64791;SDS011;51226;47.504;19.074;2023-02-02T03:14:42;2.25;;;1.40;;
64791;SDS011;51226;47.504;19.074;2023-02-02T03:17:45;1.42;;;1.30;;
64791;SDS011;51226;47.504;19.074;2023-02-02T03:20:50;2.97;;;1.40;;
64791;SDS011;51226;47.504;19.074;2023-02-02T03:23:53;1.12;;;1.08;;
64791;SDS011;51226;47.504;19.074;2023-02-02T03:26:56;3.30;;;1.27;;
64791;SDS011;51226;47.504;19.074;2023-02-02T03:29:59;1.30;;;1.20;;
64791;SDS011;51226;47.504;19.074;2023-02-02T03:33:02;2.70;;;2.00;;
64791;SDS011;51226;47.504;19.074;2023-02-02T03:36:06;2.25;;;1.42;;
64791;SDS011;51226;47.504;19.074;2023-02-02T03:42:12;1.85;;;1.30;;
64791;SDS011;51226;47.504;19.074;2023-02-02T03:45:15;1.85;;;1.40;;
64791;SDS011;51226;47.504;19.074;2023-02-02T03:48:19;1.92;;;1.77;;
64791;SDS011;51226;47.504;19.074;2023-02-02T03:51:22;2.45;;;1.40;;
64791;SDS011;51226;47.504;19.074;2023-02-02T03:54:24;3.40;;;1.30;;
64791;SDS011;51226;47.504;19.074;2023-02-02T03:57:28;4.72;;;2.53;;
64791;SDS011;51226;47.504;19.074;2023-02-02T04:00:32;3.75;;;1.58;;
64791;SDS011;51226;47.504;19.074;2023-02-02T04:03:35;1.60;;;1.12;;
64791;SDS011;51226;47.504;19.074;2023-02-02T04:06:38;2.60;;;1.30;;
64791;SDS011;51226;47.504;19.074;2023-02-02T04:09:41;1.45;;;1.25;;
64791;SDS011;51226;47.504;19.074;2023-02-02T04:12:44;1.85;;;1.00;;
64791;SDS011;51226;47.504;19.074;2023-02-02T04:15:47;1.67;;;1.00;;
64791;SDS011;51226;47.504;19.074;2023-02-02T04:18:57;1.65;;;0.95;;
64791;SDS011;51226;47.504;19.074;2023-02-02T04:22:00;3.47;;;1.15;;
64791;SDS011;51226;47.504;19.074;2023-02-02T04:25:03;1.00;;;0.90;;
64791;SDS011;51226;47.504;19.074;2023-02-02T04:31:08;1.85;;;0.88;;
64791;SDS011;51226;47.504;19.074;2023-02-02T04:34:11;4.12;;;1.87;;
64791;SDS011;51226;47.504;19.074;2023-02-02T04:37:14;4.47;;;2.75;;
64791;SDS011;51226;47.504;19.074;2023-02-02T04:40:17;3.80;;;1.70;;
64791;SDS011;51226;47.504;19.074;2023-02-02T04:43:20;1.33;;;1.17;;
64791;SDS011;51226;47.504;19.074;2023-02-02T04:46:23;1.42;;;0.90;;
64791;SDS011;51226;47.504;19.074;2023-02-02T04:49:27;1.67;;;0.90;;
64791;SDS011;51226;47.504;19.074;2023-02-02T04:52:30;2.10;;;1.00;;
64791;SDS011;51226;47.504;19.074;2023-02-02T04:55:36;2.67;;;1.10;;
64791;SDS011;51226;47.504;19.074;2023-02-02T04:58:42;2.20;;;1.02;;
64791;SDS011;51226;47.504;19.074;2023-02-02T05:04:49;2.17;;;1.20;;
64791;SDS011;51226;47.504;19.074;2023-02-02T05:07:52;1.80;;;1.10;;
64791;SDS011;51226;47.504;19.074;2023-02-02T05:10:55;3.40;;;1.23;;
64791;SDS011;51226;47.504;19.074;2023-02-02T05:13:58;2.30;;;1.20;;
64791;SDS011;51226;47.504;19.074;2023-02-02T05:17:01;2.15;;;1.00;;
64791;SDS011;51226;47.504;19.074;2023-02-02T05:20:04;2.22;;;1.25;;
64791;SDS011;51226;47.504;19.074;2023-02-02T05:23:07;2.10;;;1.27;;
64791;SDS011;51226;47.504;19.074;2023-02-02T05:26:17;3.33;;;1.10;;
64791;SDS011;51226;47.504;19.074;2023-02-02T05:29:24;2.05;;;1.10;;
64791;SDS011;51226;47.504;19.074;2023-02-02T05:32:26;1.77;;;1.27;;
64791;SDS011;51226;47.504;19.074;2023-02-02T05:35:33;2.85;;;1.30;;
64791;SDS011;51226;47.504;19.074;2023-02-02T05:38:35;1.93;;;1.20;;
64791;SDS011;51226;47.504;19.074;2023-02-02T05:41:38;2.12;;;1.10;;
64791;SDS011;51226;47.504;19.074;2023-02-02T05:44:41;3.00;;;1.03;;
64791;SDS011;51226;47.504;19.074;2023-02-02T05:47:44;2.05;;;1.23;;
64791;SDS011;51226;47.504;19.074;2023-02-02T05:50:58;1.70;;;1.10;;
64791;SDS011;51226;47.504;19.074;2023-02-02T05:54:07;3.50;;;1.33;;
64791;SDS011;51226;47.504;19.074;2023-02-02T05:57:10;2.87;;;1.50;;
64791;SDS011;51226;47.504;19.074;2023-02-02T06:00:13;1.45;;;1.33;;
64791;SDS011;51226;47.504;19.074;2023-02-02T06:03:17;2.25;;;1.17;;
64791;SDS011;51226;47.504;19.074;2023-02-02T06:06:20;1.58;;;1.20;;
64791;SDS011;51226;47.504;19.074;2023-02-02T06:09:22;2.15;;;1.20;;
64791;SDS011;51226;47.504;19.074;2023-02-02T06:12:26;3.47;;;1.45;;
64791;SDS011;51226;47.504;19.074;2023-02-02T06:15:29;3.47;;;1.50;;
64791;SDS011;51226;47.504;19.074;2023-02-02T06:18:35;4.87;;;1.25;;
64791;SDS011;51226;47.504;19.074;2023-02-02T06:21:38;5.10;;;1.40;;
64791;SDS011;51226;47.504;19.074;2023-02-02T06:24:41;1.40;;;1.20;;
64791;SDS011;51226;47.504;19.074;2023-02-02T06:27:44;1.83;;;1.30;;
64791;SDS011;51226;47.504;19.074;2023-02-02T06:33:54;2.35;;;1.20;;
64791;SDS011;51226;47.504;19.074;2023-02-02T06:36:58;2.03;;;1.45;;
64791;SDS011;51226;47.504;19.074;2023-02-02T06:40:05;1.65;;;1.20;;
64791;SDS011;51226;47.504;19.074;2023-02-02T06:43:08;2.28;;;1.30;;
64791;SDS011;51226;47.504;19.074;2023-02-02T06:46:13;1.80;;;1.20;;
64791;SDS011;51226;47.504;19.074;2023-02-02T06:49:16;4.78;;;1.58;;
64791;SDS011;51226;47.504;19.074;2023-02-02T06:52:19;2.75;;;1.08;;
64791;SDS011;51226;47.504;19.074;2023-02-02T06:55:22;3.92;;;1.52;;
64791;SDS011;51226;47.504;19.074;2023-02-02T06:58:25;4.47;;;1.15;;
64791;SDS011;51226;47.504;19.074;2023-02-02T07:01:29;2.40;;;1.25;;
64791;SDS011;51226;47.504;19.074;2023-02-02T07:04:32;4.55;;;1.40;;
64791;SDS011;51226;47.504;19.074;2023-02-02T07:07:35;1.67;;;1.25;;
64791;SDS011;51226;47.504;19.074;2023-02-02T07:10:38;1.45;;;1.05;;
64791;SDS011;51226;47.504;19.074;2023-02-02T07:14:01;2.92;;;2.05;;
64791;SDS011;51226;47.504;19.074;2023-02-02T07:17:06;2.85;;;1.30;;
64791;SDS011;51226;47.504;19.074;2023-02-02T07:20:09;2.80;;;1.40;;
64791;SDS011;51226;47.504;19.074;2023-02-02T07:26:16;2.80;;;1.58;;
64791;SDS011;51226;47.504;19.074;2023-02-02T07:29:20;2.78;;;1.12;;
64791;SDS011;51226;47.504;19.074;2023-02-02T07:32:23;2.12;;;1.12;;
64791;SDS011;51226;47.504;19.074;2023-02-02T07:35:27;0.95;;;0.90;;
64791;SDS011;51226;47.504;19.074;2023-02-02T07:38:30;3.05;;;1.20;;
64791;SDS011;51226;47.504;19.074;2023-02-02T07:41:36;3.58;;;1.65;;
64791;SDS011;51226;47.504;19.074;2023-02-02T07:44:47;2.47;;;1.35;;
64791;SDS011;51226;47.504;19.074;2023-02-02T07:47:54;5.12;;;1.60;;
64791;SDS011;51226;47.504;19.074;2023-02-02T07:51:01;5.43;;;1.60;;
64791;SDS011;51226;47.504;19.074;2023-02-02T07:54:07;3.25;;;2.08;;
64791;SDS011;51226;47.504;19.074;2023-02-02T07:57:11;2.97;;;1.27;;
64791;SDS011;51226;47.504;19.074;2023-02-02T08:00:15;2.53;;;1.30;;
64791;SDS011;51226;47.504;19.074;2023-02-02T08:03:18;3.25;;;1.20;;
64791;SDS011;51226;47.504;19.074;2023-02-02T08:06:23;1.98;;;1.40;;
64791;SDS011;51226;47.504;19.074;2023-02-02T08:09:30;2.55;;;1.25;;
64791;SDS011;51226;47.504;19.074;2023-02-02T08:12:34;2.60;;;1.17;;
64791;SDS011;51226;47.504;19.074;2023-02-02T08:15:37;3.45;;;1.45;;
64791;SDS011;51226;47.504;19.074;2023-02-02T08:18:39;3.03;;;1.30;;
64791;SDS011;51226;47.504;19.074;2023-02-02T08:21:44;5.97;;;1.10;;
64791;SDS011;51226;47.504;19.074;2023-02-02T08:24:46;2.37;;;1.35;;
64791;SDS011;51226;47.504;19.074;2023-02-02T08:27:53;2.12;;;1.00;;
64791;SDS011;51226;47.504;19.074;2023-02-02T08:30:56;1.85;;;0.70;;
64791;SDS011;51226;47.504;19.074;2023-02-02T08:34:06;1.50;;;1.00;;
64791;SDS011;51226;47.504;19.074;2023-02-02T08:37:08;1.23;;;0.93;;
64791;SDS011;51226;47.504;19.074;2023-02-02T08:40:12;2.28;;;1.00;;
64791;SDS011;51226;47.504;19.074;2023-02-02T08:43:14;2.00;;;1.25;;
64791;SDS011;51226;47.504;19.074;2023-02-02T08:46:19;2.42;;;1.30;;
64791;SDS011;51226;47.504;19.074;2023-02-02T08:49:23;3.92;;;1.00;;
64791;SDS011;51226;47.504;19.074;2023-02-02T08:52:26;1.73;;;0.95;;
64791;SDS011;51226;47.504;19.074;2023-02-02T08:55:32;2.87;;;0.90;;
64791;SDS011;51226;47.504;19.074;2023-02-02T08:58:35;1.12;;;0.88;;
64791;SDS011;51226;47.504;19.074;2023-02-02T09:01:38;6.03;;;1.50;;
64791;SDS011;51226;47.504;19.074;2023-02-02T09:04:41;3.72;;;1.33;;
64791;SDS011;51226;47.504;19.074;2023-02-02T09:07:46;3.80;;;1.10;;
64791;SDS011;51226;47.504;19.074;2023-02-02T09:10:53;3.83;;;1.27;;
64791;SDS011;51226;47.504;19.074;2023-02-02T09:13:58;2.95;;;1.23;;
64791;SDS011;51226;47.504;19.074;2023-02-02T09:17:03;4.85;;;1.80;;
64791;SDS011;51226;47.504;19.074;2023-02-02T09:20:06;5.60;;;1.45;;
64791;SDS011;51226;47.504;19.074;2023-02-02T09:23:11;3.17;;;1.40;;
64791;SDS011;51226;47.504;19.074;2023-02-02T09:29:19;1.65;;;1.30;;
64791;SDS011;51226;47.504;19.074;2023-02-02T09:32:22;4.55;;;1.30;;
64791;SDS011;51226;47.504;19.074;2023-02-02T09:38:28;2.08;;;1.05;;
64791;SDS011;51226;47.504;19.074;2023-02-02T09:44:51;4.05;;;1.40;;
64791;SDS011;51226;47.504;19.074;2023-02-02T09:48:02;3.50;;;1.37;;
64791;SDS011;51226;47.504;19.074;2023-02-02T09:51:11;3.45;;;1.02;;
64791;SDS011;51226;47.504;19.074;2023-02-02T09:57:52;5.30;;;1.35;;
64791;SDS011;51226;47.504;19.074;2023-02-02T10:07:30;3.33;;;1.30;;
64791;SDS011;51226;47.504;19.074;2023-02-02T10:10:38;4.87;;;1.48;;
64791;SDS011;51226;47.504;19.074;2023-02-02T10:13:44;3.08;;;1.05;;
64791;SDS011;51226;47.504;19.074;2023-02-02T10:16:51;2.22;;;1.12;;
64791;SDS011;51226;47.504;19.074;2023-02-02T10:19:57;2.25;;;1.10;;
64791;SDS011;51226;47.504;19.074;2023-02-02T10:26:45;1.85;;;1.10;;
64791;SDS011;51226;47.504;19.074;2023-02-02T10:29:54;3.50;;;1.77;;
64791;SDS011;51226;47.504;19.074;2023-02-02T10:36:10;3.10;;;1.37;;
64791;SDS011;51226;47.504;19.074;2023-02-02T10:46:54;4.47;;;1.27;;
64791;SDS011;51226;47.504;19.074;2023-02-02T10:53:15;3.50;;;1.23;;
64791;SDS011;51226;47.504;19.074;2023-02-02T10:56:20;4.93;;;1.27;;
64791;SDS011;51226;47.504;19.074;2023-02-02T10:59:49;2.17;;;1.08;;
64791;SDS011;51226;47.504;19.074;2023-02-02T11:03:01;3.05;;;1.33;;
64791;SDS011;51226;47.504;19.074;2023-02-02T11:06:06;3.55;;;1.30;;
64791;SDS011;51226;47.504;19.074;2023-02-02T11:09:34;3.10;;;1.10;;
64791;SDS011;51226;47.504;19.074;2023-02-02T11:12:41;4.53;;;1.75;;
64791;SDS011;51226;47.504;19.074;2023-02-02T11:16:07;1.73;;;1.23;;
64791;SDS011;51226;47.504;19.074;2023-02-02T11:22:25;2.22;;;1.12;;
64791;SDS011;51226;47.504;19.074;2023-02-02T11:28:35;3.33;;;1.52;;
64791;SDS011;51226;47.504;19.074;2023-02-02T11:31:38;3.78;;;1.37;;
64791;SDS011;51226;47.504;19.074;2023-02-02T11:34:42;2.75;;;1.25;;
64791;SDS011;51226;47.504;19.074;2023-02-02T11:41:05;2.83;;;1.55;;
64791;SDS011;51226;47.504;19.074;2023-02-02T11:47:41;1.87;;;1.10;;
64791;SDS011;51226;47.504;19.074;2023-02-02T11:50:47;2.00;;;1.20;;
64791;SDS011;51226;47.504;19.074;2023-02-02T11:54:13;4.45;;;1.40;;
64791;SDS011;51226;47.504;19.074;2023-02-02T11:57:23;3.45;;;1.50;;
64791;SDS011;51226;47.504;19.074;2023-02-02T12:00:26;5.28;;;1.62;;
64791;SDS011;51226;47.504;19.074;2023-02-02T12:03:34;2.62;;;1.60;;
64791;SDS011;51226;47.504;19.074;2023-02-02T12:06:39;4.50;;;1.58;;
64791;SDS011;51226;47.504;19.074;2023-02-02T12:09:42;2.67;;;1.23;;
64791;SDS011;51226;47.504;19.074;2023-02-02T12:16:19;4.07;;;1.42;;
64791;SDS011;51226;47.504;19.074;2023-02-02T12:26:26;2.17;;;1.25;;
64791;SDS011;51226;47.504;19.074;2023-02-02T12:43:27;3.15;;;1.60;;
64791;SDS011;51226;47.504;19.074;2023-02-02T12:46:45;1.83;;;1.12;;
64791;SDS011;51226;47.504;19.074;2023-02-02T12:57:20;3.78;;;1.42;;
64791;SDS011;51226;47.504;19.074;2023-02-02T13:07:59;6.12;;;1.40;;
64791;SDS011;51226;47.504;19.074;2023-02-02T13:11:12;4.47;;;1.70;;
64791;SDS011;51226;47.504;19.074;2023-02-02T13:14:35;3.72;;;1.60;;
64791;SDS011;51226;47.504;19.074;2023-02-02T13:17:50;3.53;;;1.45;;
64791;SDS011;51226;47.504;19.074;2023-02-02T13:21:00;7.12;;;1.75;;
64791;SDS011;51226;47.504;19.074;2023-02-02T13:24:06;7.05;;;1.75;;
64791;SDS011;51226;47.504;19.074;2023-02-02T13:27:17;4.72;;;2.10;;
64791;SDS011;51226;47.504;19.074;2023-02-02T13:30:36;2.40;;;1.73;;
64791;SDS011;51226;47.504;19.074;2023-02-02T13:33:40;4.20;;;1.60;;
64791;SDS011;51226;47.504;19.074;2023-02-02T13:36:53;5.03;;;1.60;;
64791;SDS011;51226;47.504;19.074;2023-02-02T13:43:38;4.43;;;1.60;;
64791;SDS011;51226;47.504;19.074;2023-02-02T13:49:56;5.90;;;2.70;;
64791;SDS011;51226;47.504;19.074;2023-02-02T13:59:59;4.60;;;1.42;;
64791;SDS011;51226;47.504;19.074;2023-02-02T14:06:34;5.68;;;1.65;;
64791;SDS011;51226;47.504;19.074;2023-02-02T14:09:57;4.65;;;1.48;;
64791;SDS011;51226;47.504;19.074;2023-02-02T14:13:05;2.30;;;1.62;;
64791;SDS011;51226;47.504;19.074;2023-02-02T14:22:46;3.45;;;1.62;;
64791;SDS011;51226;47.504;19.074;2023-02-02T14:26:13;4.50;;;1.73;;
64791;SDS011;51226;47.504;19.074;2023-02-02T14:32:39;2.28;;;1.27;;
64791;SDS011;51226;47.504;19.074;2023-02-02T14:38:52;2.97;;;1.73;;
64791;SDS011;51226;47.504;19.074;2023-02-02T14:49:18;9.45;;;4.25;;
64791;SDS011;51226;47.504;19.074;2023-02-02T14:52:25;6.35;;;2.62;;
64791;SDS011;51226;47.504;19.074;2023-02-02T14:58:35;3.22;;;1.50;;
64791;SDS011;51226;47.504;19.074;2023-02-02T15:01:52;2.33;;;1.65;;
64791;SDS011;51226;47.504;19.074;2023-02-02T15:08:40;4.25;;;2.03;;
64791;SDS011;51226;47.504;19.074;2023-02-02T15:15:14;4.43;;;2.17;;
64791;SDS011;51226;47.504;19.074;2023-02-02T15:18:24;4.18;;;1.87;;
64791;SDS011;51226;47.504;19.074;2023-02-02T15:21:35;3.60;;;1.75;;
64791;SDS011;51226;47.504;19.074;2023-02-02T15:24:42;2.83;;;1.80;;
64791;SDS011;51226;47.504;19.074;2023-02-02T15:27:54;4.30;;;2.33;;
64791;SDS011;51226;47.504;19.074;2023-02-02T15:34:18;4.53;;;1.98;;
64791;SDS011;51226;47.504;19.074;2023-02-02T15:37:29;3.17;;;1.60;;
64791;SDS011;51226;47.504;19.074;2023-02-02T15:40:41;2.95;;;1.52;;
64791;SDS011;51226;47.504;19.074;2023-02-02T15:46:48;5.75;;;1.60;;
64791;SDS011;51226;47.504;19.074;2023-02-02T15:49:52;4.65;;;2.30;;
64791;SDS011;51226;47.504;19.074;2023-02-02T15:52:55;5.90;;;2.00;;
64791;SDS011;51226;47.504;19.074;2023-02-02T15:55:58;5.32;;;2.00;;
64791;SDS011;51226;47.504;19.074;2023-02-02T15:59:13;7.40;;;2.10;;
64791;SDS011;51226;47.504;19.074;2023-02-02T16:02:30;4.45;;;1.90;;
64791;SDS011;51226;47.504;19.074;2023-02-02T16:08:40;6.60;;;2.70;;
64791;SDS011;51226;47.504;19.074;2023-02-02T16:11:44;3.60;;;1.77;;
64791;SDS011;51226;47.504;19.074;2023-02-02T16:14:50;5.70;;;2.15;;
64791;SDS011;51226;47.504;19.074;2023-02-02T16:17:59;2.92;;;2.25;;
64791;SDS011;51226;47.504;19.074;2023-02-02T16:21:05;6.03;;;3.60;;
64791;SDS011;51226;47.504;19.074;2023-02-02T16:27:25;4.45;;;1.85;;
64791;SDS011;51226;47.504;19.074;2023-02-02T16:30:36;3.85;;;1.80;;
64791;SDS011;51226;47.504;19.074;2023-02-02T16:33:40;5.35;;;2.15;;
64791;SDS011;51226;47.504;19.074;2023-02-02T16:37:02;3.92;;;1.75;;
64791;SDS011;51226;47.504;19.074;2023-02-02T16:40:24;2.58;;;1.70;;
64791;SDS011;51226;47.504;19.074;2023-02-02T16:43:29;6.45;;;2.08;;
64791;SDS011;51226;47.504;19.074;2023-02-02T16:46:39;4.12;;;1.90;;
64791;SDS011;51226;47.504;19.074;2023-02-02T16:49:48;2.53;;;1.77;;
64791;SDS011;51226;47.504;19.074;2023-02-02T16:53:00;3.95;;;1.77;;
64791;SDS011;51226;47.504;19.074;2023-02-02T16:56:05;4.53;;;1.98;;
64791;SDS011;51226;47.504;19.074;2023-02-02T17:05:49;4.75;;;2.00;;
64791;SDS011;51226;47.504;19.074;2023-02-02T17:08:55;3.53;;;1.73;;
64791;SDS011;51226;47.504;19.074;2023-02-02T17:15:35;5.72;;;2.28;;
64791;SDS011;51226;47.504;19.074;2023-02-02T17:18:38;6.85;;;2.00;;
64791;SDS011;51226;47.504;19.074;2023-02-02T17:21:41;8.85;;;2.72;;
64791;SDS011;51226;47.504;19.074;2023-02-02T17:24:44;3.67;;;2.00;;
64791;SDS011;51226;47.504;19.074;2023-02-02T17:27:50;5.97;;;2.45;;
64791;SDS011;51226;47.504;19.074;2023-02-02T17:30:57;6.28;;;2.35;;
64791;SDS011;51226;47.504;19.074;2023-02-02T17:34:08;6.00;;;2.50;;
64791;SDS011;51226;47.504;19.074;2023-02-02T17:37:17;4.50;;;2.67;;
64791;SDS011;51226;47.504;19.074;2023-02-02T17:40:21;8.45;;;2.45;;
64791;SDS011;51226;47.504;19.074;2023-02-02T17:43:25;3.28;;;2.30;;
64791;SDS011;51226;47.504;19.074;2023-02-02T17:46:28;4.05;;;2.20;;
64791;SDS011;51226;47.504;19.074;2023-02-02T17:49:34;7.18;;;2.42;;
64791;SDS011;51226;47.504;19.074;2023-02-02T17:52:37;5.57;;;2.40;;
64791;SDS011;51226;47.504;19.074;2023-02-02T17:55:41;4.93;;;2.25;;
64791;SDS011;51226;47.504;19.074;2023-02-02T17:58:45;3.83;;;2.20;;
64791;SDS011;51226;47.504;19.074;2023-02-02T18:01:48;5.07;;;2.07;;
64791;SDS011;51226;47.504;19.074;2023-02-02T18:04:52;5.05;;;2.17;;
64791;SDS011;51226;47.504;19.074;2023-02-02T18:07:55;3.77;;;2.10;;
64791;SDS011;51226;47.504;19.074;2023-02-02T18:10:58;3.83;;;3.08;;
64791;SDS011;51226;47.504;19.074;2023-02-02T18:14:01;2.90;;;2.10;;
64791;SDS011;51226;47.504;19.074;2023-02-02T18:17:04;5.12;;;2.30;;
64791;SDS011;51226;47.504;19.074;2023-02-02T18:20:07;4.75;;;2.33;;
64791;SDS011;51226;47.504;19.074;2023-02-02T18:23:11;5.65;;;2.47;;
64791;SDS011;51226;47.504;19.074;2023-02-02T18:26:15;5.90;;;2.47;;
64791;SDS011;51226;47.504;19.074;2023-02-02T18:29:20;6.57;;;2.95;;
64791;SDS011;51226;47.504;19.074;2023-02-02T18:32:23;3.47;;;2.53;;
64791;SDS011;51226;47.504;19.074;2023-02-02T18:35:26;6.18;;;2.67;;
64791;SDS011;51226;47.504;19.074;2023-02-02T18:38:29;4.80;;;2.20;;
64791;SDS011;51226;47.504;19.074;2023-02-02T18:41:32;5.25;;;3.15;;
64791;SDS011;51226;47.504;19.074;2023-02-02T18:44:35;4.13;;;2.27;;
64791;SDS011;51226;47.504;19.074;2023-02-02T18:47:40;8.05;;;4.25;;
64791;SDS011;51226;47.504;19.074;2023-02-02T18:50:42;9.20;;;4.10;;
64791;SDS011;51226;47.504;19.074;2023-02-02T18:53:46;11.35;;;3.30;;
64791;SDS011;51226;47.504;19.074;2023-02-02T18:56:49;5.60;;;2.72;;
64791;SDS011;51226;47.504;19.074;2023-02-02T18:59:52;4.90;;;2.37;;
64791;SDS011;51226;47.504;19.074;2023-02-02T19:02:55;5.77;;;2.50;;
64791;SDS011;51226;47.504;19.074;2023-02-02T19:09:30;4.70;;;2.53;;
64791;SDS011;51226;47.504;19.074;2023-02-02T19:12:33;3.20;;;2.42;;
64791;SDS011;51226;47.504;19.074;2023-02-02T19:15:36;4.73;;;2.70;;
64791;SDS011;51226;47.504;19.074;2023-02-02T19:18:41;5.87;;;3.33;;
64791;SDS011;51226;47.504;19.074;2023-02-02T19:21:44;6.53;;;2.60;;
64791;SDS011;51226;47.504;19.074;2023-02-02T19:24:47;5.93;;;2.50;;
64791;SDS011;51226;47.504;19.074;2023-02-02T19:27:51;6.90;;;2.78;;
64791;SDS011;51226;47.504;19.074;2023-02-02T19:30:55;7.28;;;2.78;;
64791;SDS011;51226;47.504;19.074;2023-02-02T19:33:59;5.22;;;2.50;;
64791;SDS011;51226;47.504;19.074;2023-02-02T19:40:27;5.15;;;2.10;;
64791;SDS011;51226;47.504;19.074;2023-02-02T19:46:34;7.90;;;2.60;;
64791;SDS011;51226;47.504;19.074;2023-02-02T19:49:43;7.18;;;3.03;;
64791;SDS011;51226;47.504;19.074;2023-02-02T19:52:47;19.10;;;8.93;;
64791;SDS011;51226;47.504;19.074;2023-02-02T19:55:51;6.45;;;2.90;;
64791;SDS011;51226;47.504;19.074;2023-02-02T19:58:54;3.83;;;2.67;;
64791;SDS011;51226;47.504;19.074;2023-02-02T20:01:57;4.22;;;2.70;;
64791;SDS011;51226;47.504;19.074;2023-02-02T20:05:12;7.65;;;3.00;;
64791;SDS011;51226;47.504;19.074;2023-02-02T20:11:40;5.62;;;2.92;;
64791;SDS011;51226;47.504;19.074;2023-02-02T20:14:45;6.18;;;3.25;;
64791;SDS011;51226;47.504;19.074;2023-02-02T20:17:49;9.05;;;2.92;;
64791;SDS011;51226;47.504;19.074;2023-02-02T20:20:56;5.75;;;3.05;;
64791;SDS011;51226;47.504;19.074;2023-02-02T20:23:59;6.50;;;2.72;;
64791;SDS011;51226;47.504;19.074;2023-02-02T20:30:24;7.50;;;2.75;;
64791;SDS011;51226;47.504;19.074;2023-02-02T20:33:32;6.20;;;2.70;;
64791;SDS011;51226;47.504;19.074;2023-02-02T20:36:37;3.67;;;2.17;;
64791;SDS011;51226;47.504;19.074;2023-02-02T20:39:45;5.25;;;2.50;;
64791;SDS011;51226;47.504;19.074;2023-02-02T20:43:09;4.70;;;2.62;;
64791;SDS011;51226;47.504;19.074;2023-02-02T20:46:14;4.55;;;3.08;;
64791;SDS011;51226;47.504;19.074;2023-02-02T20:49:17;7.87;;;3.55;;
64791;SDS011;51226;47.504;19.074;2023-02-02T20:52:22;7.90;;;3.30;;
64791;SDS011;51226;47.504;19.074;2023-02-02T20:55:25;7.55;;;3.33;;
64791;SDS011;51226;47.504;19.074;2023-02-02T20:58:29;4.82;;;2.78;;
64791;SDS011;51226;47.504;19.074;2023-02-02T21:01:33;10.70;;;5.10;;
64791;SDS011;51226;47.504;19.074;2023-02-02T21:04:36;8.30;;;3.30;;
64791;SDS011;51226;47.504;19.074;2023-02-02T21:07:40;8.70;;;3.20;;
64791;SDS011;51226;47.504;19.074;2023-02-02T21:10:43;5.85;;;3.10;;
64791;SDS011;51226;47.504;19.074;2023-02-02T21:13:46;5.50;;;2.85;;
64791;SDS011;51226;47.504;19.074;2023-02-02T21:16:51;5.50;;;3.05;;
64791;SDS011;51226;47.504;19.074;2023-02-02T21:20:14;5.93;;;3.58;;
64791;SDS011;51226;47.504;19.074;2023-02-02T21:23:17;5.15;;;2.85;;
64791;SDS011;51226;47.504;19.074;2023-02-02T21:26:20;4.43;;;3.33;;
64791;SDS011;51226;47.504;19.074;2023-02-02T21:29:28;7.35;;;3.40;;
64791;SDS011;51226;47.504;19.074;2023-02-02T21:32:32;7.45;;;3.05;;
64791;SDS011;51226;47.504;19.074;2023-02-02T21:35:36;4.30;;;3.35;;
64791;SDS011;51226;47.504;19.074;2023-02-02T21:38:38;8.00;;;3.77;;
64791;SDS011;51226;47.504;19.074;2023-02-02T21:41:42;6.30;;;3.60;;
64791;SDS011;51226;47.504;19.074;2023-02-02T21:51:34;7.87;;;5.22;;
64791;SDS011;51226;47.504;19.074;2023-02-02T21:54:39;7.75;;;4.18;;
64791;SDS011;51226;47.504;19.074;2023-02-02T21:57:42;5.32;;;3.12;;
64791;SDS011;51226;47.504;19.074;2023-02-02T22:00:45;5.57;;;3.25;;
64791;SDS011;51226;47.504;19.074;2023-02-02T22:03:48;6.62;;;3.60;;
64791;SDS011;51226;47.504;19.074;2023-02-02T22:06:53;5.12;;;3.22;;
64791;SDS011;51226;47.504;19.074;2023-02-02T22:10:02;7.53;;;4.03;;
64791;SDS011;51226;47.504;19.074;2023-02-02T22:13:28;7.15;;;3.42;;